Time;durP1;ratioP1;P1;durP2;ratioP2;P2;SDS_P1;SDS_P2;PMS_P1;PMS_P2;Temp;Humidity;BMP_temperature;BMP_pressure;BME280_temperature;BME280_humidity;BME280_pressure;Samples;Min_cycle;Max_cycle;Signal;HPM_P1;HPM_P2
2022/04/08 00:01:43;;;;;;;5.78;1.63;;;5.30;99.90;;;;;;5008927;28;20037;-80
2022/04/08 00:04:09;;;;;;;7.85;1.27;;;5.30;99.90;;;;;;5011257;28;20046;-80
2022/04/08 00:06:34;;;;;;;3.30;0.95;;;6.20;99.90;;;;;;5012358;28;20484;-79
2022/04/08 00:09:00;;;;;;;5.78;1.00;;;5.10;99.90;;;;;;5010818;28;20551;-80
2022/04/08 00:11:26;;;;;;;5.05;1.30;;;4.90;99.90;;;;;;5011644;28;20033;-79
2022/04/08 00:13:53;;;;;;;7.38;1.45;;;4.80;99.90;;;;;;5004545;28;20479;-80
2022/04/08 00:16:20;;;;;;;5.90;1.23;;;4.70;99.90;;;;;;5006061;28;20043;-80
2022/04/08 00:18:46;;;;;;;5.10;1.45;;;4.70;99.90;;;;;;5010299;28;20052;-80
2022/04/08 00:21:12;;;;;;;6.65;1.25;;;4.60;99.90;;;;;;5015663;28;20131;-80
2022/04/08 00:23:38;;;;;;;9.73;1.63;;;4.80;99.90;;;;;;4993872;28;20045;-80
2022/04/08 00:26:04;;;;;;;8.15;1.60;;;4.60;99.90;;;;;;5010725;28;20036;-79
2022/04/08 00:28:30;;;;;;;7.50;1.70;;;4.60;99.90;;;;;;5010821;28;20053;-79
2022/04/08 00:30:55;;;;;;;8.77;1.92;;;4.60;99.90;;;;;;5010382;28;20049;-79
2022/04/08 00:33:21;;;;;;;8.80;1.63;;;4.60;99.90;;;;;;4982001;28;20033;-84
2022/04/08 00:35:47;;;;;;;10.23;2.00;;;4.60;99.90;;;;;;5017680;28;20045;-84
2022/04/08 00:38:13;;;;;;;10.88;1.70;;;4.60;99.90;;;;;;4976588;28;20041;-84
2022/04/08 00:40:38;;;;;;;9.85;1.63;;;5.20;99.90;;;;;;4991681;28;20045;-84
2022/04/08 00:43:15;;;;;;;8.95;1.80;;;4.60;99.90;;;;;;5009175;28;20049;-83
2022/04/08 00:45:40;;;;;;;;;;;4.60;99.90;;;;;;5014617;28;20029;-83
2022/04/08 00:48:07;;;;;;;9.60;2.00;;;4.50;99.90;;;;;;5007732;28;19940;-79
2022/04/08 00:50:41;;;;;;;10.85;1.90;;;4.40;99.90;;;;;;5014054;28;20072;-79
2022/04/08 00:53:07;;;;;;;9.25;2.13;;;4.20;99.90;;;;;;5007251;28;20037;-79
2022/04/08 00:55:37;;;;;;;6.97;1.55;;;4.30;99.90;;;;;;5015859;28;20387;-79
2022/04/08 00:58:04;;;;;;;10.05;1.92;;;4.10;99.90;;;;;;5016309;28;20440;-79
2022/04/08 01:00:35;;;;;;;9.27;1.83;;;4.10;99.90;;;;;;4999557;28;20364;-79
2022/04/08 01:03:02;;;;;;;8.35;1.65;;;4.00;99.90;;;;;;5015771;28;20053;-79
2022/04/08 01:05:28;;;;;;;9.23;1.75;;;4.30;99.90;;;;;;4999959;28;20113;-85
2022/04/08 01:07:55;;;;;;;8.60;2.08;;;4.10;99.90;;;;;;4999522;28;20057;-85
2022/04/08 01:10:21;;;;;;;7.13;1.60;;;4.10;99.90;;;;;;5015716;28;20033;-85
2022/04/08 01:12:49;;;;;;;7.22;1.45;;;4.10;99.90;;;;;;5015181;28;20041;-85
2022/04/08 01:15:20;;;;;;;8.77;1.60;;;4.10;99.90;;;;;;5016306;28;20083;-85
2022/04/08 01:17:46;;;;;;;10.02;2.15;;;4.10;99.90;;;;;;4999335;28;20049;-85
2022/04/08 01:20:12;;;;;;;10.73;2.00;;;4.10;99.90;;;;;;5016059;28;20056;-84
2022/04/08 01:22:38;;;;;;;9.75;1.77;;;4.10;99.90;;;;;;5013412;28;20041;-85
2022/04/08 01:25:08;;;;;;;6.63;1.60;;;4.10;99.90;;;;;;4982681;28;20044;-85
2022/04/08 01:27:37;;;;;;;10.10;1.90;;;4.20;99.90;;;;;;4996900;28;20045;-85
2022/04/08 01:30:05;;;;;;;9.70;1.92;;;4.90;99.90;;;;;;5015621;28;20033;-85
2022/04/08 01:32:30;;;;;;;8.35;1.73;;;4.10;99.90;;;;;;5019059;28;20048;-85
2022/04/08 01:34:56;;;;;;;9.90;1.97;;;4.50;99.90;;;;;;5015565;28;20045;-85
2022/04/08 01:37:22;;;;;;;12.52;2.50;;;4.50;99.90;;;;;;5007628;28;20038;-85
2022/04/08 01:39:48;;;;;;;11.10;2.03;;;4.00;99.90;;;;;;4990573;28;20045;-80
2022/04/08 01:42:14;;;;;;;9.82;2.15;;;4.00;99.90;;;;;;4999129;28;20072;-80
2022/04/08 01:44:40;;;;;;;13.40;2.17;;;3.90;99.90;;;;;;5015080;28;20037;-80
2022/04/08 01:47:06;;;;;;;16.67;2.40;;;3.90;99.90;;;;;;5011022;28;20057;-80
2022/04/08 01:49:32;;;;;;;12.27;2.40;;;3.90;99.90;;;;;;5015465;28;20435;-80
2022/04/08 01:51:58;;;;;;;13.23;2.30;;;3.90;99.90;;;;;;5013354;28;20390;-85
2022/04/08 01:54:23;;;;;;;13.80;2.20;;;3.90;99.90;;;;;;4996472;28;20038;-85
2022/04/08 01:56:49;;;;;;;12.10;2.33;;;3.90;99.90;;;;;;5011497;28;20491;-79
2022/04/08 01:59:15;;;;;;;14.20;2.40;;;3.80;99.90;;;;;;4999176;28;20503;-79
2022/04/08 02:01:41;;;;;;;13.65;2.25;;;3.80;99.90;;;;;;4995408;28;20041;-79
2022/04/08 02:04:07;;;;;;;13.65;2.78;;;3.70;99.90;;;;;;4979371;28;20484;-79
2022/04/08 02:06:34;;;;;;;11.93;2.72;;;3.80;99.90;;;;;;4993543;28;20233;-79
2022/04/08 02:09:01;;;;;;;16.33;2.72;;;3.80;99.90;;;;;;5012022;28;20573;-79
2022/04/08 02:11:26;;;;;;;12.73;2.35;;;4.00;99.90;;;;;;5012265;28;20045;-84
2022/04/08 02:13:52;;;;;;;13.70;2.53;;;4.30;99.90;;;;;;4994087;28;20041;-84
2022/04/08 02:16:18;;;;;;;8.90;1.60;;;4.20;99.90;;;;;;5008559;28;20045;-84
2022/04/08 02:18:44;;;;;;;7.68;1.50;;;4.20;99.90;;;;;;5014881;28;20034;-84
2022/04/08 02:21:10;;;;;;;7.20;1.48;;;4.10;99.90;;;;;;4988840;28;20399;-84
2022/04/08 02:23:39;;;;;;;8.07;1.70;;;4.30;99.90;;;;;;4982313;28;20068;-84
2022/04/08 02:26:06;;;;;;;7.63;1.70;;;3.80;99.90;;;;;;4998359;28;20038;-84
2022/04/08 02:28:35;;;;;;;8.23;2.10;;;4.30;99.90;;;;;;4997652;28;20037;-80
2022/04/08 02:31:01;;;;;;;6.88;1.45;;;3.70;99.90;;;;;;5015019;28;20402;-80
2022/04/08 02:33:26;;;;;;;8.10;1.83;;;3.70;99.90;;;;;;5015351;28;20041;-80
2022/04/08 02:35:52;;;;;;;10.80;2.03;;;3.60;99.90;;;;;;4982487;28;20484;-79
2022/04/08 02:38:18;;;;;;;10.73;2.00;;;3.60;99.90;;;;;;4998365;28;20046;-79
2022/04/08 02:40:44;;;;;;;12.48;2.05;;;3.60;99.90;;;;;;4998313;28;20045;-79
2022/04/08 02:43:09;;;;;;;14.75;2.22;;;3.80;99.90;;;;;;5014695;28;20107;-79
2022/04/08 02:45:36;;;;;;;10.57;2.40;;;3.50;99.90;;;;;;4996312;28;20479;-84
2022/04/08 02:48:02;;;;;;;11.80;1.97;;;3.60;99.90;;;;;;4995628;28;20042;-84
2022/04/08 02:50:28;;;;;;;14.48;2.33;;;3.70;99.90;;;;;;5014648;28;20042;-84
2022/04/08 02:52:54;;;;;;;14.77;2.70;;;3.60;99.90;;;;;;5015065;28;20124;-83
2022/04/08 02:55:20;;;;;;;12.45;2.42;;;3.70;99.90;;;;;;5014438;28;20045;-83
2022/04/08 02:57:46;;;;;;;19.80;2.93;;;3.60;99.90;;;;;;5010921;28;20124;-83
2022/04/08 03:00:17;;;;;;;13.07;2.63;;;4.20;99.90;;;;;;5031441;28;20045;-83
2022/04/08 03:02:43;;;;;;;17.05;2.90;;;3.70;99.90;;;;;;5014523;28;20080;-83
2022/04/08 03:05:09;;;;;;;16.97;2.70;;;3.80;99.90;;;;;;4992902;28;20075;-83
2022/04/08 03:07:35;;;;;;;19.42;3.33;;;3.90;99.90;;;;;;5001272;28;20136;-83
2022/04/08 03:10:03;;;;;;;16.75;3.03;;;4.10;99.90;;;;;;5017688;28;20045;-83
2022/04/08 03:12:29;;;;;;;20.00;2.97;;;3.90;99.90;;;;;;5001111;28;20116;-83
2022/04/08 03:14:55;;;;;;;15.75;2.60;;;3.80;99.90;;;;;;5001962;28;20135;-82
2022/04/08 03:17:20;;;;;;;17.65;3.17;;;4.20;99.90;;;;;;5033790;28;20547;-83
2022/04/08 03:19:46;;;;;;;22.90;3.35;;;3.90;99.90;;;;;;5018528;28;20053;-79
2022/04/08 03:22:12;;;;;;;18.83;3.10;;;3.90;99.90;;;;;;5001387;28;20045;-78
2022/04/08 03:24:38;;;;;;;16.48;3.10;;;3.90;99.90;;;;;;4985340;28;20120;-78
2022/04/08 03:27:04;;;;;;;21.42;3.40;;;4.10;99.90;;;;;;4983847;28;20041;-79
2022/04/08 03:29:29;;;;;;;17.30;2.78;;;4.20;99.90;;;;;;5001453;28;20104;-79
2022/04/08 03:31:55;;;;;;;12.77;2.25;;;4.40;99.90;;;;;;5017788;28;20076;-79
2022/04/08 03:34:21;;;;;;;4.72;1.80;;;4.30;99.90;;;;;;5016997;28;20044;-80
2022/04/08 03:36:47;;;;;;;6.10;1.45;;;4.10;99.90;;;;;;5018013;28;20050;-84
2022/04/08 03:39:13;;;;;;;3.78;0.85;;;4.10;99.90;;;;;;5017424;28;20044;-83
2022/04/08 03:41:42;;;;;;;1.75;1.10;;;3.40;99.90;;;;;;4998349;28;20140;-84
2022/04/08 03:44:08;;;;;;;4.37;1.10;;;3.10;99.90;;;;;;4990820;28;20423;-84
2022/04/08 03:46:34;;;;;;;4.22;1.20;;;2.90;99.90;;;;;;5017611;28;20033;-84
2022/04/08 03:48:59;;;;;;;5.77;1.30;;;2.80;99.90;;;;;;4984570;28;20072;-84
2022/04/08 03:51:25;;;;;;;4.10;1.10;;;2.70;99.90;;;;;;5000804;28;20037;-79
2022/04/08 03:53:51;;;;;;;2.03;0.93;;;2.70;99.90;;;;;;4985287;28;20081;-79
2022/04/08 03:56:16;;;;;;;4.30;1.30;;;2.60;99.90;;;;;;4998807;28;20048;-79
2022/04/08 03:58:42;;;;;;;2.37;1.30;;;2.70;99.90;;;;;;4997046;28;20088;-79
2022/04/08 04:01:08;;;;;;;3.57;1.30;;;2.70;99.90;;;;;;5015890;28;20046;-79
2022/04/08 04:03:33;;;;;;;8.43;1.70;;;2.70;99.90;;;;;;4982430;28;20068;-79
2022/04/08 04:06:00;;;;;;;5.00;1.30;;;2.70;99.90;;;;;;5013516;28;20050;-79
2022/04/08 04:08:26;;;;;;;2.97;1.30;;;2.70;99.90;;;;;;5016578;28;20383;-83
2022/04/08 04:10:52;;;;;;;5.83;1.57;;;2.60;99.90;;;;;;4997596;28;20400;-83
2022/04/08 04:13:18;;;;;;;4.87;1.67;;;2.60;99.90;;;;;;5012079;28;20034;-83
2022/04/08 04:15:43;;;;;;;5.77;1.70;;;2.60;99.90;;;;;;5032944;28;20041;-83
2022/04/08 04:18:09;;;;;;;5.93;1.57;;;2.60;99.90;;;;;;4983754;28;20045;-82
2022/04/08 04:20:35;;;;;;;3.37;1.23;;;2.60;99.90;;;;;;5000912;28;20045;-83
2022/04/08 04:23:01;;;;;;;3.23;1.63;;;2.60;99.90;;;;;;4983036;28;20610;-83
2022/04/08 04:25:28;;;;;;;5.83;1.30;;;3.00;99.90;;;;;;4999934;28;20099;-83
2022/04/08 04:27:55;;;;;;;8.30;1.60;;;2.70;99.90;;;;;;5000964;28;20045;-82
2022/04/08 04:30:20;;;;;;;10.77;1.80;;;2.90;99.90;;;;;;5019622;28;20041;-83
2022/04/08 04:32:46;;;;;;;8.30;1.90;;;3.00;99.90;;;;;;5017040;28;20045;-83
2022/04/08 04:35:12;;;;;;;5.73;1.70;;;3.10;99.90;;;;;;5016888;28;20404;-83
2022/04/08 04:37:38;;;;;;;6.27;1.73;;;3.20;99.90;;;;;;5013384;28;20529;-83
2022/04/08 04:40:04;;;;;;;4.63;1.67;;;3.80;99.90;;;;;;5003892;28;20041;-82
2022/04/08 04:42:30;;;;;;;5.73;1.90;;;3.30;99.90;;;;;;5013321;28;20068;-84
2022/04/08 04:44:57;;;;;;;6.40;1.90;;;3.30;99.90;;;;;;5011863;28;20083;-84
2022/04/08 04:47:23;;;;;;;4.90;1.63;;;3.40;99.90;;;;;;5006772;28;20041;-84
2022/04/08 04:49:49;;;;;;;5.53;1.67;;;3.40;99.90;;;;;;5014297;28;20047;-84
2022/04/08 04:52:15;;;;;;;4.60;1.60;;;3.40;99.90;;;;;;5006753;28;20892;-85
2022/04/08 04:54:41;;;;;;;4.80;1.70;;;3.40;99.90;;;;;;5009705;28;20038;-85
2022/04/08 04:57:07;;;;;;;5.20;1.80;;;3.40;99.90;;;;;;5012952;28;20133;-85
2022/04/08 04:59:33;;;;;;;7.43;2.00;;;3.40;99.90;;;;;;4991122;28;20479;-79
2022/04/08 05:01:59;;;;;;;3.30;1.50;;;3.40;99.90;;;;;;5013865;28;20545;-79
2022/04/08 05:04:25;;;;;;;3.13;1.40;;;3.40;99.90;;;;;;5015857;28;20057;-79
2022/04/08 05:06:51;;;;;;;6.17;2.17;;;4.20;99.90;;;;;;5016111;28;20491;-79
2022/04/08 05:09:16;;;;;;;6.10;1.45;;;3.40;99.90;;;;;;4999626;28;20045;-79
2022/04/08 05:11:42;;;;;;;5.13;1.63;;;3.40;99.90;;;;;;5009090;28;20460;-79
2022/04/08 05:14:08;;;;;;;5.78;1.80;;;3.40;99.90;;;;;;5015737;28;20042;-82
2022/04/08 05:16:34;;;;;;;2.88;1.40;;;3.40;99.90;;;;;;5015412;28;20388;-80
2022/04/08 05:19:00;;;;;;;6.18;2.40;;;4.30;99.90;;;;;;5015905;28;20041;-80
2022/04/08 05:21:29;;;;;;;5.03;1.50;;;3.40;99.90;;;;;;5015297;28;20099;-80
2022/04/08 05:23:55;;;;;;;5.45;1.75;;;3.30;99.90;;;;;;4999652;28;20071;-80
2022/04/08 05:26:21;;;;;;;6.38;1.88;;;3.40;99.90;;;;;;5015759;28;20095;-80
2022/04/08 05:28:47;;;;;;;8.63;1.90;;;3.40;99.90;;;;;;5031688;28;20132;-80
2022/04/08 05:31:13;;;;;;;7.32;1.85;;;4.20;99.90;;;;;;5014502;28;20045;-80
2022/04/08 05:33:39;;;;;;;6.35;1.88;;;3.40;99.90;;;;;;5015600;28;20488;-80
2022/04/08 05:36:05;;;;;;;10.20;2.22;;;3.70;99.90;;;;;;4973765;28;20042;-80
2022/04/08 05:38:31;;;;;;;8.13;2.25;;;3.50;99.90;;;;;;4982557;28;20049;-81
2022/04/08 05:40:57;;;;;;;4.63;1.77;;;3.60;99.90;;;;;;4981709;28;20041;-80
2022/04/08 05:43:22;;;;;;;11.00;2.10;;;3.80;99.90;;;;;;5004697;28;20037;-80
2022/04/08 05:45:48;;;;;;;8.45;2.08;;;3.80;99.90;;;;;;5012244;28;20034;-80
2022/04/08 05:48:14;;;;;;;8.00;2.20;;;3.90;99.90;;;;;;5014578;28;20038;-85
2022/04/08 05:50:39;;;;;;;9.05;1.67;;;4.20;99.90;;;;;;5028003;28;20092;-87
2022/04/08 05:53:05;;;;;;;9.52;2.50;;;4.60;99.90;;;;;;4980338;28;20037;-87
2022/04/08 05:55:31;;;;;;;6.78;2.20;;;5.00;99.90;;;;;;5010418;28;20045;-87
2022/04/08 05:57:56;;;;;;;8.13;2.25;;;4.40;99.90;;;;;;4990064;28;20575;-87
2022/04/08 06:00:23;;;;;;;8.93;1.90;;;4.50;99.90;;;;;;5001466;28;20041;-87
2022/04/08 06:02:50;;;;;;;9.05;2.33;;;5.40;99.90;;;;;;5001916;28;20042;-86
2022/04/08 06:05:19;;;;;;;6.60;1.80;;;4.70;99.90;;;;;;5008017;28;20119;-81
2022/04/08 06:07:55;;;;;;;6.25;2.20;;;4.80;99.90;;;;;;5006577;28;20037;-81
2022/04/08 06:10:23;;;;;;;5.53;1.95;;;4.90;99.90;;;;;;5011928;28;20034;-81
2022/04/08 06:12:49;;;;;;;8.27;1.80;;;5.00;99.90;;;;;;5007846;28;20042;-81
2022/04/08 06:15:16;;;;;;;5.25;1.75;;;5.30;99.90;;;;;;5000718;28;20045;-81
2022/04/08 06:17:42;;;;;;;9.25;2.13;;;5.60;99.90;;;;;;5014263;23;20133;-85
2022/04/08 06:20:09;;;;;;;7.85;2.00;;;5.70;99.90;;;;;;4982936;28;20516;-85
2022/04/08 06:22:39;;;;;;;6.20;1.88;;;5.80;99.90;;;;;;5001712;28;20385;-80
2022/04/08 06:25:10;;;;;;;14.07;2.28;;;5.60;99.90;;;;;;4971005;28;20389;-80
2022/04/08 06:27:37;;;;;;;9.25;2.20;;;5.50;99.90;;;;;;4988760;28;20042;-80
2022/04/08 06:30:07;;;;;;;8.23;2.20;;;5.40;99.90;;;;;;4989877;28;20543;-80
2022/04/08 06:32:33;;;;;;;6.45;1.92;;;5.10;99.90;;;;;;5005904;28;20049;-80
2022/04/08 06:34:59;;;;;;;7.90;2.10;;;5.40;99.90;;;;;;5001835;28;20401;-80
2022/04/08 06:37:28;;;;;;;11.88;2.13;;;6.00;99.90;;;;;;4985942;28;20061;-81
2022/04/08 06:39:55;;;;;;;9.70;2.30;;;6.80;99.90;;;;;;4991844;28;20095;-85
2022/04/08 06:42:21;;;;;;;10.02;2.22;;;7.00;99.90;;;;;;4987028;28;20079;-85
2022/04/08 06:44:48;;;;;;;8.63;2.13;;;7.10;99.90;;;;;;4995007;28;20046;-85
2022/04/08 06:47:13;;;;;;;7.65;1.98;;;7.30;99.90;;;;;;4980872;28;20405;-84
2022/04/08 06:49:43;;;;;;;8.75;1.92;;;7.20;99.90;;;;;;4981822;28;20042;-84
2022/04/08 06:52:10;;;;;;;7.38;2.15;;;7.50;99.90;;;;;;4997922;28;20069;-83
2022/04/08 06:54:36;;;;;;;6.50;1.83;;;6.30;99.90;;;;;;4987208;28;20045;-84
2022/04/08 06:57:02;;;;;;;6.60;2.00;;;6.00;99.90;;;;;;4999395;28;20476;-83
2022/04/08 06:59:27;;;;;;;10.10;1.88;;;5.90;99.90;;;;;;4978136;28;20384;-83
2022/04/08 07:01:53;;;;;;;8.45;2.25;;;6.30;99.90;;;;;;4980703;28;20099;-83
2022/04/08 07:04:19;;;;;;;5.57;1.80;;;6.80;99.90;;;;;;4984198;28;20424;-83
2022/04/08 07:06:44;;;;;;;9.23;1.98;;;7.00;99.90;;;;;;5009607;28;20041;-84
2022/04/08 07:09:10;;;;;;;7.43;2.20;;;7.70;99.90;;;;;;4985795;28;20519;-84
2022/04/08 07:11:36;;;;;;;7.78;2.00;;;8.60;99.90;;;;;;4998553;28;20034;-85
2022/04/08 07:14:04;;;;;;;7.07;2.08;;;9.50;99.90;;;;;;4991420;28;20042;-85
2022/04/08 07:16:30;;;;;;;10.40;2.40;;;9.60;99.90;;;;;;4993463;28;20049;-86
2022/04/08 07:18:56;;;;;;;9.30;2.17;;;9.70;99.90;;;;;;4976286;28;20448;-85
2022/04/08 07:21:22;;;;;;;9.50;2.63;;;9.40;99.90;;;;;;4978450;28;20582;-84
2022/04/08 07:23:48;;;;;;;8.32;1.90;;;8.60;99.90;;;;;;4978539;28;20172;-84
2022/04/08 07:26:15;;;;;;;10.57;2.47;;;8.10;99.90;;;;;;4972316;28;20446;-85
2022/04/08 07:28:41;;;;;;;7.32;2.80;;;7.50;99.90;;;;;;4969722;28;20041;-84
2022/04/08 07:31:07;;;;;;;6.72;2.60;;;7.30;99.90;;;;;;4977129;28;20045;-85
2022/04/08 07:33:32;;;;;;;10.55;2.35;;;7.80;99.90;;;;;;4974681;28;20073;-85
2022/04/08 07:35:58;;;;;;;6.38;1.85;;;8.80;99.90;;;;;;4992171;28;20392;-85
2022/04/08 07:38:24;;;;;;;9.32;1.90;;;9.90;99.90;;;;;;4966657;28;20043;-85
2022/04/08 07:40:50;;;;;;;8.07;1.70;;;10.90;99.90;;;;;;4990027;28;20042;-85
2022/04/08 07:43:17;;;;;;;6.93;1.73;;;11.40;99.90;;;;;;4974839;28;20089;-86
2022/04/08 07:45:43;;;;;;;5.82;1.85;;;12.10;99.90;;;;;;4989996;28;20077;-82
2022/04/08 07:48:09;;;;;;;4.75;1.55;;;12.70;99.90;;;;;;4996554;28;20113;-82
2022/04/08 07:50:37;;;;;;;6.72;1.60;;;13.10;99.90;;;;;;4979831;28;20418;-82
2022/04/08 07:53:03;;;;;;;5.93;1.70;;;13.50;99.90;;;;;;4995836;28;20113;-82
2022/04/08 07:55:29;;;;;;;7.20;1.80;;;13.60;99.90;;;;;;5010276;28;20046;-82
2022/04/08 07:57:55;;;;;;;7.03;1.88;;;13.40;99.90;;;;;;4979616;28;20444;-82
2022/04/08 08:00:25;;;;;;;5.72;1.42;;;13.50;99.90;;;;;;4994166;28;20038;-82
2022/04/08 08:02:51;;;;;;;4.97;1.52;;;13.70;99.90;;;;;;4978969;28;20121;-83
2022/04/08 08:05:18;;;;;;;4.45;1.48;;;13.80;99.90;;;;;;4974369;28;20532;-83
2022/04/08 08:07:48;;;;;;;7.20;1.70;;;13.80;99.80;;;;;;4997635;28;20042;-83
2022/04/08 08:10:15;;;;;;;4.88;1.60;;;14.10;99.90;;;;;;5006187;28;20038;-83
2022/04/08 08:12:41;;;;;;;6.38;1.40;;;14.70;99.90;;;;;;4993527;28;20057;-83
2022/04/08 08:15:07;;;;;;;5.15;1.65;;;15.10;99.90;;;;;;4994828;28;20046;-83
2022/04/08 08:17:33;;;;;;;5.10;1.63;;;14.70;99.00;;;;;;4990396;28;20434;-83
2022/04/08 08:19:59;;;;;;;3.67;1.33;;;15.20;98.00;;;;;;4992800;28;20125;-85
2022/04/08 08:22:24;;;;;;;6.20;1.80;;;15.00;96.70;;;;;;4975291;28;20045;-84
2022/04/08 08:24:51;;;;;;;6.20;1.52;;;14.70;96.80;;;;;;4979138;28;20110;-84
2022/04/08 08:27:17;;;;;;;4.90;1.35;;;14.50;98.20;;;;;;4996086;28;20041;-84
2022/04/08 08:29:42;;;;;;;6.43;1.73;;;13.90;98.10;;;;;;4995278;28;20039;-85
2022/04/08 08:32:08;;;;;;;3.83;1.45;;;13.30;95.60;;;;;;4974449;28;20093;-85
2022/04/08 08:34:34;;;;;;;4.57;1.38;;;13.50;99.20;;;;;;4968479;28;20054;-84
2022/04/08 08:36:59;;;;;;;4.78;1.30;;;13.70;99.90;;;;;;4988423;28;20481;-85
2022/04/08 08:39:26;;;;;;;3.25;1.25;;;13.60;95.10;;;;;;4981091;28;20121;-84
2022/04/08 08:41:53;;;;;;;5.45;1.60;;;12.90;98.60;;;;;;4963435;28;20042;-84
2022/04/08 08:44:19;;;;;;;5.60;2.00;;;13.40;99.10;;;;;;4990660;28;20518;-84
2022/04/08 08:46:46;;;;;;;5.75;1.80;;;13.80;97.20;;;;;;4990542;28;20030;-84
2022/04/08 08:49:12;;;;;;;5.72;1.60;;;13.20;98.10;;;;;;4989704;28;20047;-84
2022/04/08 08:51:41;;;;;;;4.65;1.50;;;13.00;99.40;;;;;;4992232;28;20121;-81
2022/04/08 08:54:07;;;;;;;8.60;1.73;;;11.90;98.40;;;;;;4992999;28;20038;-84
2022/04/08 08:56:33;;;;;;;8.27;1.75;;;11.10;99.90;;;;;;4978515;28;20038;-84
2022/04/08 08:58:58;;;;;;;7.88;1.73;;;11.10;99.90;;;;;;4988996;28;20045;-84
2022/04/08 09:01:24;;;;;;;7.10;1.80;;;11.70;99.90;;;;;;4990520;28;20053;-84
2022/04/08 09:03:50;;;;;;;6.13;1.80;;;11.70;99.90;;;;;;4972427;28;20445;-84
2022/04/08 09:06:17;;;;;;;7.45;2.03;;;11.30;99.90;;;;;;4973212;28;20034;-83
2022/04/08 09:08:56;;;;;;;7.03;2.10;;;10.50;99.90;;;;;;4996462;28;20408;-84
2022/04/08 09:11:26;;;;;;;7.70;1.70;;;10.70;99.90;;;;;;4995494;28;20049;-83
2022/04/08 09:13:51;;;;;;;7.30;1.88;;;12.00;99.90;;;;;;4991646;28;20070;-83
2022/04/08 09:16:27;;;;;;;7.95;1.80;;;13.40;99.90;;;;;;4975707;28;20151;-85
2022/04/08 09:18:54;;;;;;;8.93;1.73;;;14.00;97.40;;;;;;4988943;28;20063;-86
2022/04/08 09:21:24;;;;;;;7.13;1.73;;;15.10;98.80;;;;;;4992562;28;20064;-86
2022/04/08 09:23:50;;;;;;;5.03;1.30;;;16.50;95.70;;;;;;5008380;28;20504;-86
2022/04/08 09:26:16;;;;;;;5.15;1.38;;;17.50;93.20;;;;;;4993195;28;20038;-86
2022/04/08 09:28:42;;;;;;;5.57;1.48;;;16.50;80.80;;;;;;5007935;28;20034;-86
2022/04/08 09:31:19;;;;;;;5.85;1.70;;;14.60;84.70;;;;;;4992801;28;20046;-86
2022/04/08 09:33:49;;;;;;;6.43;1.80;;;13.50;93.50;;;;;;4992574;28;20046;-86
2022/04/08 09:36:26;;;;;;;5.38;1.67;;;13.60;93.00;;;;;;4990317;28;20045;-87
2022/04/08 09:38:51;;;;;;;8.43;1.85;;;13.40;92.50;;;;;;4980276;28;20038;-86
2022/04/08 09:41:17;;;;;;;8.95;1.80;;;12.90;95.50;;;;;;4990666;28;20408;-86
2022/04/08 09:43:43;;;;;;;7.28;2.10;;;12.10;96.60;;;;;;4968281;28;20485;-85
2022/04/08 09:46:20;;;;;;;10.88;2.13;;;11.50;97.50;;;;;;4974984;28;20038;-86
2022/04/08 09:48:47;;;;;;;6.13;1.70;;;11.10;97.80;;;;;;4976187;28;20074;-85
2022/04/08 09:51:20;;;;;;;3.65;1.20;;;11.80;98.50;;;;;;4971711;28;20036;-85
2022/04/08 09:53:53;;;;;;;4.43;1.33;;;13.50;94.40;;;;;;5010234;28;20042;-86
2022/04/08 09:56:22;;;;;;;6.30;1.40;;;15.30;91.00;;;;;;4989739;28;20169;-86
2022/04/08 09:58:57;;;;;;;7.53;1.80;;;15.80;85.50;;;;;;4973178;28;20049;-84
2022/04/08 10:01:25;;;;;;;5.80;1.75;;;14.60;86.30;;;;;;4992712;28;20453;-85
2022/04/08 10:03:52;;;;;;;5.40;1.50;;;13.50;93.00;;;;;;4992904;28;20449;-85
2022/04/08 10:06:18;;;;;;;5.63;1.55;;;12.60;96.40;;;;;;4969546;28;20065;-85
2022/04/08 10:08:46;;;;;;;4.75;1.40;;;12.40;98.30;;;;;;4990679;28;20030;-85
2022/04/08 10:11:36;;;;;;;6.07;1.98;;;12.90;98.90;;;;;;4991897;28;20038;-85
2022/04/08 10:14:28;;;;;;;5.63;1.60;;;14.40;94.80;;;;;;4989262;28;20046;-85
2022/04/08 10:16:57;;;;;;;5.32;1.40;;;15.90;90.70;;;;;;4995254;28;20543;-85
2022/04/08 10:19:23;;;;;;;5.68;1.70;;;15.80;85.70;;;;;;4994358;28;20136;-85
2022/04/08 10:21:54;;;;;;;5.70;1.65;;;16.70;89.70;;;;;;4979121;28;20168;-86
2022/04/08 10:24:28;;;;;;;5.75;1.80;;;17.30;83.20;;;;;;4992503;28;20065;-86
2022/04/08 10:26:56;;;;;;;6.88;1.70;;;17.40;77.90;;;;;;4999192;28;20489;-86
2022/04/08 10:29:22;;;;;;;4.07;1.70;;;17.20;80.10;;;;;;4993999;28;20042;-85
2022/04/08 10:32:00;;;;;;;5.28;1.42;;;15.70;82.80;;;;;;4979429;28;20042;-84
2022/04/08 10:34:26;;;;;;;4.00;1.30;;;14.10;91.70;;;;;;4978547;28;20054;-84
2022/04/08 10:36:52;;;;;;;5.22;1.23;;;11.90;99.10;;;;;;4973762;28;20504;-83
2022/04/08 10:39:23;;;;;;;3.85;1.30;;;10.60;99.90;;;;;;4998599;28;20042;-83
2022/04/08 10:41:51;;;;;;;6.18;1.63;;;9.40;99.90;;;;;;5006233;28;20046;-84
2022/04/08 10:44:37;;;;;;;6.03;1.83;;;8.70;99.90;;;;;;5006930;28;20112;-82
2022/04/08 10:47:16;;;;;;;4.47;1.30;;;8.00;99.90;;;;;;5009038;28;20049;-81
2022/04/08 10:49:49;;;;;;;4.68;1.33;;;7.40;99.90;;;;;;5006427;28;20029;-83
2022/04/08 10:52:18;;;;;;;8.20;1.63;;;7.10;99.90;;;;;;4995358;28;20045;-83
2022/04/08 10:54:44;;;;;;;4.15;1.33;;;7.00;99.90;;;;;;4990395;28;20038;-84
2022/04/08 10:57:10;;;;;;;6.68;1.52;;;7.30;99.90;;;;;;4995765;28;20069;-84
2022/04/08 10:59:36;;;;;;;4.68;1.42;;;7.80;99.90;;;;;;4996413;28;20061;-85
2022/04/08 11:02:05;;;;;;;5.10;1.40;;;8.50;99.90;;;;;;4977619;28;20488;-84
2022/04/08 11:04:32;;;;;;;5.82;1.67;;;8.90;99.90;;;;;;5003892;28;20097;-85
2022/04/08 11:07:07;;;;;;;6.45;1.95;;;9.10;99.90;;;;;;4996813;28;20049;-85
2022/04/08 11:09:34;;;;;;;7.85;1.90;;;9.30;99.90;;;;;;4977951;28;20042;-85
2022/04/08 11:12:01;;;;;;;6.45;1.77;;;9.60;99.90;;;;;;4978797;28;20034;-85
2022/04/08 11:14:29;;;;;;;5.95;2.30;;;10.50;99.90;;;;;;4998766;28;20042;-85
2022/04/08 11:16:55;;;;;;;5.28;1.98;;;12.50;99.90;;;;;;4997062;28;20383;-85
2022/04/08 11:19:21;;;;;;;8.18;1.88;;;13.80;99.90;;;;;;4993482;28;20129;-85
2022/04/08 11:21:48;;;;;;;5.60;1.75;;;14.80;99.90;;;;;;4994200;28;20411;-82
2022/04/08 11:24:16;;;;;;;7.90;1.95;;;15.80;99.90;;;;;;5002802;28;20562;-82
2022/04/08 11:26:50;;;;;;;5.22;1.42;;;16.50;99.90;;;;;;4997801;28;20501;-82
2022/04/08 11:29:19;;;;;;;6.20;1.50;;;16.10;95.60;;;;;;4998467;28;20076;-82
2022/04/08 11:31:47;;;;;;;6.40;1.40;;;15.00;94.30;;;;;;4999383;28;20073;-82
2022/04/08 11:34:13;;;;;;;6.03;1.63;;;13.80;96.00;;;;;;5009206;28;20035;-82
2022/04/08 11:36:39;;;;;;;6.95;1.67;;;12.90;97.10;;;;;;5006690;28;20046;-82
2022/04/08 11:39:06;;;;;;;5.40;1.73;;;12.50;98.80;;;;;;5000876;28;20093;-82
2022/04/08 11:41:33;;;;;;;9.65;1.90;;;12.50;99.90;;;;;;4993725;28;20046;-82
2022/04/08 11:43:59;;;;;;;3.97;1.60;;;12.90;99.60;;;;;;4959902;28;20095;-82
2022/04/08 11:46:25;;;;;;;7.38;1.83;;;13.50;99.10;;;;;;4997608;28;20432;-82
2022/04/08 11:48:51;;;;;;;6.10;1.80;;;14.10;96.70;;;;;;4992728;28;20039;-82
2022/04/08 11:51:21;;;;;;;5.80;1.52;;;14.40;95.30;;;;;;4979057;28;20381;-82
2022/04/08 11:53:49;;;;;;;4.95;1.60;;;14.50;96.40;;;;;;4995515;28;20112;-82
2022/04/08 11:56:23;;;;;;;7.13;1.80;;;14.80;92.50;;;;;;4991422;28;20128;-82
2022/04/08 11:58:59;;;;;;;6.00;1.95;;;15.50;95.00;;;;;;4990639;28;20098;-83
2022/04/08 12:01:33;;;;;;;3.80;1.50;;;16.50;94.80;;;;;;4993120;28;20042;-82
2022/04/08 12:04:01;;;;;;;9.00;1.42;;;16.90;88.10;;;;;;4980161;28;20038;-82
2022/04/08 12:06:35;;;;;;;6.47;1.83;;;16.40;87.30;;;;;;4997055;28;20377;-82
2022/04/08 12:09:02;;;;;;;6.32;1.70;;;16.60;90.10;;;;;;4993272;28;20388;-82
2022/04/08 12:11:29;;;;;;;5.53;1.58;;;16.60;90.60;;;;;;4994027;28;20041;-82
2022/04/08 12:13:58;;;;;;;8.00;1.75;;;17.50;91.30;;;;;;4996115;28;20150;-82
2022/04/08 12:16:30;;;;;;;7.85;1.73;;;17.20;90.60;;;;;;4977952;28;20053;-82
2022/04/08 12:18:56;;;;;;;7.05;1.80;;;16.90;90.60;;;;;;4964067;28;20061;-82
2022/04/08 12:21:24;;;;;;;5.40;1.52;;;15.70;88.40;;;;;;4992309;28;20050;-82
2022/04/08 12:23:52;;;;;;;8.02;1.90;;;15.00;90.60;;;;;;4989898;28;20049;-82
2022/04/08 12:26:18;;;;;;;7.38;1.63;;;14.60;91.60;;;;;;5002161;28;20481;-82
2022/04/08 12:28:44;;;;;;;7.75;2.10;;;13.40;90.80;;;;;;4973159;28;20038;-83
2022/04/08 12:31:24;;;;;;;7.65;1.85;;;12.80;92.30;;;;;;4992205;28;20050;-83
2022/04/08 12:33:50;;;;;;;7.30;1.70;;;13.60;93.00;;;;;;5006056;28;20042;-84
2022/04/08 12:36:17;;;;;;;9.95;2.20;;;13.60;93.00;;;;;;4977525;28;20499;-83
2022/04/08 12:38:43;;;;;;;7.63;1.70;;;14.40;93.40;;;;;;4973670;28;20046;-84
2022/04/08 12:41:10;;;;;;;6.97;1.85;;;14.60;89.70;;;;;;4991267;28;20038;-83
2022/04/08 12:43:36;;;;;;;4.40;1.58;;;14.00;89.50;;;;;;4991728;28;20061;-83
2022/04/08 12:46:01;;;;;;;6.35;1.58;;;14.20;90.50;;;;;;4988825;28;20062;-82
2022/04/08 12:48:27;;;;;;;5.25;1.45;;;14.70;89.80;;;;;;4980120;28;20144;-82
2022/04/08 12:50:55;;;;;;;5.38;1.67;;;15.10;90.60;;;;;;4990719;28;20038;-82
2022/04/08 12:53:21;;;;;;;4.70;1.52;;;15.30;89.10;;;;;;5009782;28;20108;-82